<?xml version='1.0' encoding='UTF-8'?><gpx version="1.1" creator="JPX - https://github.com/jenetics/jpx" xmlns="http://www.topografix.com/GPX/1/1"><trk><trkseg><trkpt lat="45.06811129178985" lon="0.8185450532072452"><ele>213.0</ele><time>2026-04-10T16:30:17.998Z</time></trkpt><trkpt lat="45.06817803256413" lon="0.8185405277354948"><ele>213.0</ele><time>2026-04-10T16:30:18.998Z</time></trkpt><trkpt lat="45.068289404531285" lon="0.8185293366883098"><ele>213.0</ele><time>2026-04-10T16:30:21Z</time></trkpt><trkpt lat="45.06840872304683" lon="0.8185187384835015"><ele>213.0</ele><time>2026-04-10T16:30:23Z</time></trkpt><trkpt lat="45.06850586752441" lon="0.8185052733234558"><ele>213.0</ele><time>2026-04-10T16:30:25Z</time></trkpt><trkpt lat="45.06859037773928" lon="0.8184960627091331"><ele>214.8</ele><time>2026-04-10T16:30:27Z</time></trkpt><trkpt lat="45.06866892777342" lon="0.818479332663719"><ele>216.60000000000002</ele><time>2026-04-10T16:30:28Z</time></trkpt><trkpt lat="45.068745817224084" lon="0.8184629425077843"><ele>218.39999999999998</ele><time>2026-04-10T16:30:29Z</time></trkpt><trkpt lat="45.06885247393915" lon="0.8184436615148072"><ele>220.2</ele><time>2026-04-10T16:30:31Z</time></trkpt><trkpt lat="45.068969905529165" lon="0.8184079307249099"><ele>222.0</ele><time>2026-04-10T16:30:33Z</time></trkpt><trkpt lat="45.06907682920905" lon="0.818375690243919"><ele>221.83333333333334</ele><time>2026-04-10T16:30:34Z</time></trkpt><trkpt lat="45.069169321640835" lon="0.8183617220495224"><ele>221.66666666666669</ele><time>2026-04-10T16:30:35Z</time></trkpt><trkpt lat="45.06924939641602" lon="0.8183346172047847"><ele>221.5</ele><time>2026-04-10T16:30:36Z</time></trkpt><trkpt lat="45.069323711123474" lon="0.8183215434932561"><ele>221.33333333333334</ele><time>2026-04-10T16:30:37Z</time></trkpt><trkpt lat="45.069402693630614" lon="0.8183232966338925"><ele>221.16666666666669</ele><time>2026-04-10T16:30:38Z</time></trkpt><trkpt lat="45.06950803250264" lon="0.8183189886182014"><ele>221.0</ele><time>2026-04-10T16:30:39Z</time></trkpt><trkpt lat="45.069626975892675" lon="0.8183382952191938"><ele>221.0</ele><time>2026-04-10T16:30:40Z</time></trkpt><trkpt lat="45.0697376260136" lon="0.8183889243226555"><ele>221.0</ele><time>2026-04-10T16:30:41Z</time></trkpt><trkpt lat="45.069848156256185" lon="0.8184565431396138"><ele>221.0</ele><time>2026-04-10T16:30:42Z</time></trkpt><trkpt lat="45.069951254959136" lon="0.8185177131188257"><ele>221.0</ele><time>2026-04-10T16:30:43Z</time></trkpt><trkpt lat="45.07005591829557" lon="0.818575484840132"><ele>221.20000000000002</ele><time>2026-04-10T16:30:44Z</time></trkpt><trkpt lat="45.07014403201157" lon="0.8186289643636536"><ele>221.40000000000003</ele><time>2026-04-10T16:30:45Z</time></trkpt><trkpt lat="45.0702265083307" lon="0.8186560226280019"><ele>221.6</ele><time>2026-04-10T16:30:46Z</time></trkpt><trkpt lat="45.07028695247585" lon="0.8186941329467887"><ele>221.8</ele><time>2026-04-10T16:30:47Z</time></trkpt><trkpt lat="45.07035317401718" lon="0.8188002297214095"><ele>222.0</ele><time>2026-04-10T16:30:49Z</time></trkpt><trkpt lat="45.07031422078195" lon="0.8189405820917885"><ele>222.0</ele><time>2026-04-10T16:30:50Z</time></trkpt><trkpt lat="45.070294681391985" lon="0.8190471172713272"><ele>222.0</ele><time>2026-04-10T16:30:51Z</time></trkpt><trkpt lat="45.07027332194172" lon="0.8191646777880638"><ele>222.0</ele><time>2026-04-10T16:30:52Z</time></trkpt><trkpt lat="45.07026179820756" lon="0.8192900833764649"><ele>222.0</ele><time>2026-04-10T16:30:53Z</time></trkpt><trkpt lat="45.07024749901006" lon="0.8194190530684654"><ele>222.0</ele><time>2026-04-10T16:30:54Z</time></trkpt><trkpt lat="45.07026445386317" lon="0.8195435860060358"><ele>222.0</ele><time>2026-04-10T16:30:55Z</time></trkpt><trkpt lat="45.07026445386075" lon="0.8196659397840402"><ele>221.2</ele><time>2026-04-10T16:30:56Z</time></trkpt><trkpt lat="45.07017666477553" lon="0.8197811775616285"><ele>220.39999999999998</ele><time>2026-04-10T16:30:57Z</time></trkpt><trkpt lat="45.070131526219285" lon="0.8199053149425336"><ele>219.60000000000002</ele><time>2026-04-10T16:30:58Z</time></trkpt><trkpt lat="45.07008580457684" lon="0.8200060480238174"><ele>218.8</ele><time>2026-04-10T16:30:59Z</time></trkpt><trkpt lat="45.07002672106404" lon="0.8200877281462987"><ele>218.0</ele><time>2026-04-10T16:30:59.999Z</time></trkpt><trkpt lat="45.069959552266056" lon="0.8201360867480579"><ele>216.2</ele><time>2026-04-10T16:31:00.999Z</time></trkpt><trkpt lat="45.06986425091879" lon="0.8201724733584493"><ele>214.4</ele><time>2026-04-10T16:31:01.999Z</time></trkpt><trkpt lat="45.06976698947029" lon="0.8202187090661907"><ele>212.6</ele><time>2026-04-10T16:31:02.999Z</time></trkpt><trkpt lat="45.06967746704151" lon="0.8202697100449368"><ele>210.79999999999998</ele><time>2026-04-10T16:31:03.999Z</time></trkpt><trkpt lat="45.069609417738704" lon="0.8203054549824206"><ele>209.0</ele><time>2026-04-10T16:31:04.999Z</time></trkpt><trkpt lat="45.06952884054871" lon="0.820337854523311"><ele>209.0</ele><time>2026-04-10T16:31:05.999Z</time></trkpt><trkpt lat="45.06944336000063" lon="0.8203076977168577"><ele>209.0</ele><time>2026-04-10T16:31:06.999Z</time></trkpt><trkpt lat="45.069347550589164" lon="0.820273276740134"><ele>209.0</ele><time>2026-04-10T16:31:07.999Z</time></trkpt><trkpt lat="45.069251772512786" lon="0.8202500778025145"><ele>209.0</ele><time>2026-04-10T16:31:08.999Z</time></trkpt><trkpt lat="45.0691489715459" lon="0.8202024965374491"><ele>209.0</ele><time>2026-04-10T16:31:09.999Z</time></trkpt><trkpt lat="45.06905794400198" lon="0.8201540011137892"><ele>209.6</ele><time>2026-04-10T16:31:10.999Z</time></trkpt><trkpt lat="45.06897794167995" lon="0.8201278242614173"><ele>210.2</ele><time>2026-04-10T16:31:11.999Z</time></trkpt><trkpt lat="45.06889129391509" lon="0.8201506245931729"><ele>210.79999999999998</ele><time>2026-04-10T16:31:12.999Z</time></trkpt><trkpt lat="45.068798121047045" lon="0.8202164213235331"><ele>211.39999999999998</ele><time>2026-04-10T16:31:13.999Z</time></trkpt><trkpt lat="45.068706918941714" lon="0.8202836728330061"><ele>212.0</ele><time>2026-04-10T16:31:14.999Z</time></trkpt><trkpt lat="45.06863383407159" lon="0.820404741083054"><ele>212.66666666666669</ele><time>2026-04-10T16:31:16.999Z</time></trkpt><trkpt lat="45.06857164098128" lon="0.8204718155796314"><ele>213.33333333333334</ele><time>2026-04-10T16:31:20.999Z</time></trkpt><trkpt lat="45.0685014735701" lon="0.8205371159804934"><ele>214.0</ele><time>2026-04-10T16:31:23.999Z</time></trkpt><trkpt lat="45.06843909220651" lon="0.8206026688930776"><ele>214.66666666666669</ele><time>2026-04-10T16:31:26.999Z</time></trkpt><trkpt lat="45.06838541251572" lon="0.8206634166045575"><ele>215.33333333333334</ele><time>2026-04-10T16:31:28.999Z</time></trkpt><trkpt lat="45.0683060073887" lon="0.8207451980489154"><ele>216.0</ele><time>2026-04-10T16:31:30.999Z</time></trkpt><trkpt lat="45.06826302294307" lon="0.8208168219179514"><ele>217.4</ele><time>2026-04-10T16:31:31.999Z</time></trkpt><trkpt lat="45.06821222350123" lon="0.8208942875143086"><ele>218.8</ele><time>2026-04-10T16:31:32.999Z</time></trkpt><trkpt lat="45.068083286231925" lon="0.8209748848346773"><ele>220.20000000000002</ele><time>2026-04-10T16:31:34.999Z</time></trkpt><trkpt lat="45.06799764952611" lon="0.8210114928727179"><ele>221.60000000000002</ele><time>2026-04-10T16:31:35.999Z</time></trkpt><trkpt lat="45.06791789039513" lon="0.8210456955481975"><ele>223.0</ele><time>2026-04-10T16:31:36.999Z</time></trkpt><trkpt lat="45.0678357533459" lon="0.8211042360205637"><ele>224.0</ele><time>2026-04-10T16:31:37.999Z</time></trkpt><trkpt lat="45.06775702654526" lon="0.8211570709837865"><ele>225.0</ele><time>2026-04-10T16:31:38.999Z</time></trkpt><trkpt lat="45.06769955055634" lon="0.8212232468464506"><ele>226.0</ele><time>2026-04-10T16:31:39.999Z</time></trkpt><trkpt lat="45.06766159572319" lon="0.8213013282888113"><ele>227.0</ele><time>2026-04-10T16:31:40.999Z</time></trkpt><trkpt lat="45.06761623051675" lon="0.8213888565769153"><ele>228.0</ele><time>2026-04-10T16:31:41.999Z</time></trkpt><trkpt lat="45.067594911983996" lon="0.8214889086924549"><ele>228.99999999999997</ele><time>2026-04-10T16:31:42.999Z</time></trkpt><trkpt lat="45.06759682650102" lon="0.8215878656893406"><ele>229.99999999999997</ele><time>2026-04-10T16:31:43.999Z</time></trkpt><trkpt lat="45.067618278215136" lon="0.8216903484491686"><ele>230.0</ele><time>2026-04-10T16:31:44.999Z</time></trkpt><trkpt lat="45.06764432425499" lon="0.8218290171016713"><ele>230.0</ele><time>2026-04-10T16:31:45.999Z</time></trkpt><trkpt lat="45.06766606088786" lon="0.8219461810351951"><ele>230.0</ele><time>2026-04-10T16:31:46.999Z</time></trkpt><trkpt lat="45.06767105559476" lon="0.8220747555458366"><ele>230.0</ele><time>2026-04-10T16:31:47.999Z</time></trkpt><trkpt lat="45.067652928783914" lon="0.8221921662980881"><ele>230.0</ele><time>2026-04-10T16:31:48.999Z</time></trkpt><trkpt lat="45.067638746860844" lon="0.8223267631638634"><ele>230.0</ele><time>2026-04-10T16:31:49.999Z</time></trkpt><trkpt lat="45.067628342626406" lon="0.8224729222278698"><ele>230.0</ele><time>2026-04-10T16:31:50.999Z</time></trkpt><trkpt lat="45.06760733514919" lon="0.82261457096225"><ele>230.0</ele><time>2026-04-10T16:31:51.998Z</time></trkpt><trkpt lat="45.06757907065522" lon="0.8227458333490243"><ele>230.0</ele><time>2026-04-10T16:31:52.998Z</time></trkpt><trkpt lat="45.06756221701943" lon="0.8228458636951934"><ele>230.0</ele><time>2026-04-10T16:31:53.998Z</time></trkpt><trkpt lat="45.067546037981984" lon="0.8229519078358625"><ele>230.16666666666669</ele><time>2026-04-10T16:31:54.998Z</time></trkpt><trkpt lat="45.067533529421496" lon="0.8230528875844799"><ele>230.33333333333334</ele><time>2026-04-10T16:31:55.998Z</time></trkpt><trkpt lat="45.06751820049866" lon="0.8231542533590703"><ele>230.5</ele><time>2026-04-10T16:31:56.998Z</time></trkpt><trkpt lat="45.06749873309352" lon="0.8232507803936472"><ele>230.66666666666669</ele><time>2026-04-10T16:31:57.998Z</time></trkpt><trkpt lat="45.06748738917051" lon="0.8233384840779665"><ele>230.83333333333334</ele><time>2026-04-10T16:31:58.998Z</time></trkpt><trkpt lat="45.06746864495344" lon="0.8234717824761867"><ele>231.0</ele><time>2026-04-10T16:32:00.998Z</time></trkpt><trkpt lat="45.06747207024965" lon="0.8236089056845535"><ele>231.0</ele><time>2026-04-10T16:32:02.998Z</time></trkpt><trkpt lat="45.0674416860533" lon="0.8237740413863092"><ele>231.0</ele><time>2026-04-10T16:32:04.998Z</time></trkpt><trkpt lat="45.067410511454895" lon="0.8238574513632156"><ele>231.0</ele><time>2026-04-10T16:32:05.998Z</time></trkpt><trkpt lat="45.06738529604663" lon="0.8239457934832802"><ele>231.0</ele><time>2026-04-10T16:32:06.998Z</time></trkpt><trkpt lat="45.06736485414731" lon="0.8240313675992366"><ele>231.0</ele><time>2026-04-10T16:32:07.998Z</time></trkpt><trkpt lat="45.06735196601441" lon="0.8241939200068855"><ele>231.0</ele><time>2026-04-10T16:32:09.998Z</time></trkpt><trkpt lat="45.067310599572046" lon="0.8243418081683539"><ele>231.0</ele><time>2026-04-10T16:32:11.998Z</time></trkpt><trkpt lat="45.067269503939556" lon="0.8244883289366272"><ele>231.00000000000003</ele><time>2026-04-10T16:32:13.998Z</time></trkpt><trkpt lat="45.067214265076835" lon="0.8246303318807048"><ele>231.00000000000003</ele><time>2026-04-10T16:32:15.998Z</time></trkpt><trkpt lat="45.0671789589808" lon="0.8247084528755714"><ele>231.0</ele><time>2026-04-10T16:32:16.998Z</time></trkpt><trkpt lat="45.06713986817343" lon="0.8247834244409734"><ele>231.0</ele><time>2026-04-10T16:32:17.998Z</time></trkpt><trkpt lat="45.06706613972997" lon="0.8249233222200766"><ele>231.0</ele><time>2026-04-10T16:32:19.998Z</time></trkpt><trkpt lat="45.067006822991075" lon="0.8250512571565155"><ele>231.00000000000003</ele><time>2026-04-10T16:32:21.998Z</time></trkpt><trkpt lat="45.06691838537998" lon="0.8251398623419204"><ele>231.00000000000003</ele><time>2026-04-10T16:32:23.998Z</time></trkpt><trkpt lat="45.06685487160266" lon="0.8252397651218729"><ele>231.0</ele><time>2026-04-10T16:32:26Z</time></trkpt><trkpt lat="45.066772034916916" lon="0.8253590690368122"><ele>231.0</ele><time>2026-04-10T16:32:28Z</time></trkpt><trkpt lat="45.06672520172367" lon="0.8254266192306622"><ele>230.8</ele><time>2026-04-10T16:32:29Z</time></trkpt><trkpt lat="45.06664577786795" lon="0.8255445838165753"><ele>230.60000000000002</ele><time>2026-04-10T16:32:31Z</time></trkpt><trkpt lat="45.06657921658564" lon="0.825642116697539"><ele>230.4</ele><time>2026-04-10T16:32:33Z</time></trkpt><trkpt lat="45.06649607291233" lon="0.825772875355095"><ele>230.2</ele><time>2026-04-10T16:32:35Z</time></trkpt><trkpt lat="45.06642506749641" lon="0.8258146081089649"><ele>230.0</ele><time>2026-04-10T16:32:36Z</time></trkpt><trkpt lat="45.06636801201268" lon="0.8258926757036666"><ele>230.0</ele><time>2026-04-10T16:32:37Z</time></trkpt><trkpt lat="45.06629703478893" lon="0.8259634936141458"><ele>230.0</ele><time>2026-04-10T16:32:38Z</time></trkpt><trkpt lat="45.066210955741006" lon="0.8260226932603042"><ele>230.0</ele><time>2026-04-10T16:32:39Z</time></trkpt><trkpt lat="45.06613172516941" lon="0.826099693740346"><ele>230.0</ele><time>2026-04-10T16:32:40Z</time></trkpt><trkpt lat="45.06605798727935" lon="0.8261713562574482"><ele>230.0</ele><time>2026-04-10T16:32:41Z</time></trkpt><trkpt lat="45.065984621414614" lon="0.8262414915717344"><ele>230.16666666666669</ele><time>2026-04-10T16:32:42Z</time></trkpt><trkpt lat="45.06591558032924" lon="0.8263077613666179"><ele>230.33333333333334</ele><time>2026-04-10T16:32:43Z</time></trkpt><trkpt lat="45.065841640403896" lon="0.8263787334311016"><ele>230.5</ele><time>2026-04-10T16:32:44Z</time></trkpt><trkpt lat="45.065772059996995" lon="0.8264577097911856"><ele>230.66666666666669</ele><time>2026-04-10T16:32:45Z</time></trkpt><trkpt lat="45.06571122580113" lon="0.826547916764613"><ele>230.83333333333334</ele><time>2026-04-10T16:32:46Z</time></trkpt><trkpt lat="45.06565039509496" lon="0.8266433017903972"><ele>231.0</ele><time>2026-04-10T16:32:47Z</time></trkpt><trkpt lat="45.06559268815772" lon="0.8267337886061611"><ele>231.20000000000002</ele><time>2026-04-10T16:32:48Z</time></trkpt><trkpt lat="45.0655337179947" lon="0.8268274514318639"><ele>231.40000000000003</ele><time>2026-04-10T16:32:49Z</time></trkpt><trkpt lat="45.06547507762659" lon="0.8269212340585068"><ele>231.6</ele><time>2026-04-10T16:32:50Z</time></trkpt><trkpt lat="45.06541522450363" lon="0.827016956228806"><ele>231.8</ele><time>2026-04-10T16:32:51Z</time></trkpt><trkpt lat="45.065352329952965" lon="0.8271123134026389"><ele>232.0</ele><time>2026-04-10T16:32:52Z</time></trkpt><trkpt lat="45.06528671304271" lon="0.8272106634624705"><ele>232.0</ele><time>2026-04-10T16:32:53Z</time></trkpt><trkpt lat="45.065232137532306" lon="0.8273162225671099"><ele>232.0</ele><time>2026-04-10T16:32:54Z</time></trkpt><trkpt lat="45.06515240377635" lon="0.827376210456364"><ele>232.0</ele><time>2026-04-10T16:32:55Z</time></trkpt><trkpt lat="45.06507756814292" lon="0.8274565414315866"><ele>232.0</ele><time>2026-04-10T16:32:56Z</time></trkpt><trkpt lat="45.06499097279243" lon="0.8275454386406231"><ele>232.0</ele><time>2026-04-10T16:32:57Z</time></trkpt><trkpt lat="45.06491638754715" lon="0.8276540194722043"><ele>231.99999999999997</ele><time>2026-04-10T16:32:58Z</time></trkpt><trkpt lat="45.06483833174725" lon="0.8277318740529993"><ele>232.0</ele><time>2026-04-10T16:32:59Z</time></trkpt><trkpt lat="45.064775392422355" lon="0.8278134340326335"><ele>232.0</ele><time>2026-04-10T16:33:00Z</time></trkpt><trkpt lat="45.06470999863081" lon="0.8278961432270904"><ele>232.0</ele><time>2026-04-10T16:33:00.999Z</time></trkpt><trkpt lat="45.0646519622891" lon="0.8279747469410031"><ele>231.99999999999997</ele><time>2026-04-10T16:33:01.999Z</time></trkpt><trkpt lat="45.064599778855296" lon="0.828044368657873"><ele>232.0</ele><time>2026-04-10T16:33:02.999Z</time></trkpt><trkpt lat="45.06454167198733" lon="0.8281162436052399"><ele>232.0</ele><time>2026-04-10T16:33:03.999Z</time></trkpt><trkpt lat="45.06448287711912" lon="0.8281937578174288"><ele>232.0</ele><time>2026-04-10T16:33:04.999Z</time></trkpt><trkpt lat="45.064418772529024" lon="0.8282906379041381"><ele>232.0</ele><time>2026-04-10T16:33:05.999Z</time></trkpt><trkpt lat="45.06434688165095" lon="0.8283990662513734"><ele>232.0</ele><time>2026-04-10T16:33:06.999Z</time></trkpt><trkpt lat="45.06427108747176" lon="0.8285244764118913"><ele>232.0</ele><time>2026-04-10T16:33:07.999Z</time></trkpt><trkpt lat="45.06418632848267" lon="0.8286312833045607"><ele>232.2</ele><time>2026-04-10T16:33:08.999Z</time></trkpt><trkpt lat="45.06410901410375" lon="0.8287427046674555"><ele>232.39999999999998</ele><time>2026-04-10T16:33:09.999Z</time></trkpt><trkpt lat="45.06403707894807" lon="0.8288595736500269"><ele>232.60000000000002</ele><time>2026-04-10T16:33:10.999Z</time></trkpt><trkpt lat="45.0639660448122" lon="0.8289609184768437"><ele>232.8</ele><time>2026-04-10T16:33:11.999Z</time></trkpt><trkpt lat="45.063898061381146" lon="0.8290462389128325"><ele>233.0</ele><time>2026-04-10T16:33:12.999Z</time></trkpt><trkpt lat="45.06382430119125" lon="0.8291312061813404"><ele>233.0</ele><time>2026-04-10T16:33:13.999Z</time></trkpt><trkpt lat="45.06374522393045" lon="0.8292080311367641"><ele>233.0</ele><time>2026-04-10T16:33:14.999Z</time></trkpt><trkpt lat="45.06366113047532" lon="0.8292863343224831"><ele>233.0</ele><time>2026-04-10T16:33:15.999Z</time></trkpt><trkpt lat="45.063580040208706" lon="0.8293533315442635"><ele>233.0</ele><time>2026-04-10T16:33:16.999Z</time></trkpt><trkpt lat="45.06350094509907" lon="0.8294129435832702"><ele>233.0</ele><time>2026-04-10T16:33:17.999Z</time></trkpt><trkpt lat="45.0634266280136" lon="0.8294606456021218"><ele>232.4</ele><time>2026-04-10T16:33:18.999Z</time></trkpt><trkpt lat="45.063357662715866" lon="0.8294971280343219"><ele>231.8</ele><time>2026-04-10T16:33:19.999Z</time></trkpt><trkpt lat="45.063278823678" lon="0.8296016027364376"><ele>231.2</ele><time>2026-04-10T16:33:21.999Z</time></trkpt><trkpt lat="45.063261853900485" lon="0.8297724875862433"><ele>230.6</ele><time>2026-04-10T16:33:23.999Z</time></trkpt><trkpt lat="45.06330930673117" lon="0.8298679604665414"><ele>230.0</ele><time>2026-04-10T16:33:24.999Z</time></trkpt><trkpt lat="45.063322672843086" lon="0.829973241817182"><ele>229.99999999999997</ele><time>2026-04-10T16:33:25.999Z</time></trkpt><trkpt lat="45.06331778935761" lon="0.8300673492054925"><ele>230.0</ele><time>2026-04-10T16:33:26.999Z</time></trkpt><trkpt lat="45.06330114500009" lon="0.8301711197586066"><ele>229.99999999999997</ele><time>2026-04-10T16:33:27.999Z</time></trkpt><trkpt lat="45.06330624778778" lon="0.8302796580825895"><ele>229.99999999999997</ele><time>2026-04-10T16:33:28.999Z</time></trkpt><trkpt lat="45.06329312285006" lon="0.830370932034707"><ele>230.0</ele><time>2026-04-10T16:33:29.999Z</time></trkpt><trkpt lat="45.0633032126113" lon="0.8304717536098142"><ele>229.99999999999997</ele><time>2026-04-10T16:33:30.999Z</time></trkpt><trkpt lat="45.06330210114816" lon="0.8305866110464188"><ele>229.99999999999997</ele><time>2026-04-10T16:33:31.999Z</time></trkpt><trkpt lat="45.06334146716707" lon="0.8306827057609523"><ele>229.4</ele><time>2026-04-10T16:33:32.999Z</time></trkpt><trkpt lat="45.06338265170573" lon="0.830792678946899"><ele>228.8</ele><time>2026-04-10T16:33:34.999Z</time></trkpt><trkpt lat="45.063302648397105" lon="0.830864522518458"><ele>228.2</ele><time>2026-04-10T16:33:38.999Z</time></trkpt><trkpt lat="45.06321801623094" lon="0.8307916364040353"><ele>227.6</ele><time>2026-04-10T16:33:39.999Z</time></trkpt><trkpt lat="45.06312817723557" lon="0.8307045583758089"><ele>227.0</ele><time>2026-04-10T16:33:40.999Z</time></trkpt><trkpt lat="45.06303031411463" lon="0.8306425380239348"><ele>226.39999999999998</ele><time>2026-04-10T16:33:41.999Z</time></trkpt><trkpt lat="45.06293046010496" lon="0.8305844746687306"><ele>225.79999999999998</ele><time>2026-04-10T16:33:42.999Z</time></trkpt><trkpt lat="45.06283828083641" lon="0.8305328812338114"><ele>225.2</ele><time>2026-04-10T16:33:43.999Z</time></trkpt><trkpt lat="45.06274634619615" lon="0.8304855975043373"><ele>224.6</ele><time>2026-04-10T16:33:44.999Z</time></trkpt><trkpt lat="45.06267024699302" lon="0.8304241098999131"><ele>224.0</ele><time>2026-04-10T16:33:45.999Z</time></trkpt><trkpt lat="45.06258903033397" lon="0.8303753616102861"><ele>224.00000000000003</ele><time>2026-04-10T16:33:46.999Z</time></trkpt><trkpt lat="45.062517110234985" lon="0.830341044439829"><ele>224.0</ele><time>2026-04-10T16:33:47.999Z</time></trkpt><trkpt lat="45.062440390789526" lon="0.8303028932227117"><ele>224.0</ele><time>2026-04-10T16:33:48.999Z</time></trkpt><trkpt lat="45.06237776448826" lon="0.8302508918501753"><ele>224.0</ele><time>2026-04-10T16:33:49.999Z</time></trkpt><trkpt lat="45.06231127576702" lon="0.8301936996374844"><ele>224.00000000000003</ele><time>2026-04-10T16:33:50.999Z</time></trkpt><trkpt lat="45.06223689634542" lon="0.8301171806456973"><ele>224.0</ele><time>2026-04-10T16:33:51.999Z</time></trkpt><trkpt lat="45.062172687140276" lon="0.8300352549906688"><ele>223.28571428571428</ele><time>2026-04-10T16:33:52.999Z</time></trkpt><trkpt lat="45.06211701404154" lon="0.8299554421003645"><ele>222.57142857142856</ele><time>2026-04-10T16:33:53.999Z</time></trkpt><trkpt lat="45.06206915443216" lon="0.8298825590873129"><ele>221.85714285714286</ele><time>2026-04-10T16:33:54.998Z</time></trkpt><trkpt lat="45.06202723505522" lon="0.8298009583237298"><ele>221.14285714285714</ele><time>2026-04-10T16:33:55.998Z</time></trkpt><trkpt lat="45.06199016263236" lon="0.8297214241097546"><ele>220.42857142857142</ele><time>2026-04-10T16:33:56.998Z</time></trkpt><trkpt lat="45.061959547756786" lon="0.82962985621492"><ele>219.71428571428572</ele><time>2026-04-10T16:33:57.998Z</time></trkpt><trkpt lat="45.06192138064977" lon="0.8295313337490631"><ele>219.0</ele><time>2026-04-10T16:33:58.998Z</time></trkpt><trkpt lat="45.06189049295362" lon="0.8294151778987019"><ele>219.25</ele><time>2026-04-10T16:33:59.998Z</time></trkpt><trkpt lat="45.06187004403225" lon="0.8292849868534403"><ele>219.5</ele><time>2026-04-10T16:34:00.998Z</time></trkpt><trkpt lat="45.061836498976916" lon="0.829127102436239"><ele>219.75</ele><time>2026-04-10T16:34:01.998Z</time></trkpt><trkpt lat="45.06181268880136" lon="0.8289526483290861"><ele>220.0</ele><time>2026-04-10T16:34:02.998Z</time></trkpt><trkpt lat="45.06179553153737" lon="0.8287896990208914"><ele>220.0</ele><time>2026-04-10T16:34:03.998Z</time></trkpt><trkpt lat="45.061771305833744" lon="0.8286171521021152"><ele>220.0</ele><time>2026-04-10T16:34:04.998Z</time></trkpt><trkpt lat="45.06174558883393" lon="0.8284411986699924"><ele>220.0</ele><time>2026-04-10T16:34:05.998Z</time></trkpt><trkpt lat="45.061720500334495" lon="0.8282608728884081"><ele>220.0</ele><time>2026-04-10T16:34:06.998Z</time></trkpt><trkpt lat="45.061705782794505" lon="0.8280908179562904"><ele>220.0</ele><time>2026-04-10T16:34:07.998Z</time></trkpt><trkpt lat="45.06168889252854" lon="0.8279316814564129"><ele>220.0</ele><time>2026-04-10T16:34:08.998Z</time></trkpt><trkpt lat="45.061676949425475" lon="0.8277662405696088"><ele>220.0</ele><time>2026-04-10T16:34:09.998Z</time></trkpt><trkpt lat="45.06166605752526" lon="0.8276008387187447"><ele>220.0</ele><time>2026-04-10T16:34:10.998Z</time></trkpt><trkpt lat="45.06166277585681" lon="0.8274335449130092"><ele>219.5</ele><time>2026-04-10T16:34:11.998Z</time></trkpt><trkpt lat="45.061700446878596" lon="0.8272679786575903"><ele>219.0</ele><time>2026-04-10T16:34:12.998Z</time></trkpt><trkpt lat="45.06173341260301" lon="0.8271177476488978"><ele>218.5</ele><time>2026-04-10T16:34:13.998Z</time></trkpt><trkpt lat="45.06178099068961" lon="0.826969253681695"><ele>218.0</ele><time>2026-04-10T16:34:14.998Z</time></trkpt><trkpt lat="45.06182464468288" lon="0.8268282293871536"><ele>217.0</ele><time>2026-04-10T16:34:15.998Z</time></trkpt><trkpt lat="45.061891978778654" lon="0.8267160019551356"><ele>216.0</ele><time>2026-04-10T16:34:16.998Z</time></trkpt><trkpt lat="45.061979862440914" lon="0.8266313851287891"><ele>215.0</ele><time>2026-04-10T16:34:17.998Z</time></trkpt><trkpt lat="45.06205842385497" lon="0.8265297340040092"><ele>214.0</ele><time>2026-04-10T16:34:18.998Z</time></trkpt><trkpt lat="45.06212484284067" lon="0.8264086626190713"><ele>213.0</ele><time>2026-04-10T16:34:19.998Z</time></trkpt><trkpt lat="45.06220267882966" lon="0.8263174457495781"><ele>213.0</ele><time>2026-04-10T16:34:20.998Z</time></trkpt><trkpt lat="45.06225998463025" lon="0.8262098965818411"><ele>213.0</ele><time>2026-04-10T16:34:21.998Z</time></trkpt><trkpt lat="45.062287822684084" lon="0.8260852960501447"><ele>213.0</ele><time>2026-04-10T16:34:22.998Z</time></trkpt><trkpt lat="45.06230721750722" lon="0.8259856255441298"><ele>213.0</ele><time>2026-04-10T16:34:23.998Z</time></trkpt><trkpt lat="45.062338495485065" lon="0.8258963343246052"><ele>213.0</ele><time>2026-04-10T16:34:25.998Z</time></trkpt><trkpt lat="45.06214959491728" lon="0.8258986402532881"><ele>213.0</ele><time>2026-04-10T16:34:27.998Z</time></trkpt><trkpt lat="45.062071763170344" lon="0.8259410826253526"><ele>213.0</ele><time>2026-04-10T16:34:28.998Z</time></trkpt><trkpt lat="45.06197481122316" lon="0.8259836824333888"><ele>213.0</ele><time>2026-04-10T16:34:29.998Z</time></trkpt><trkpt lat="45.06186374812299" lon="0.8260043255946129"><ele>213.0</ele><time>2026-04-10T16:34:30.998Z</time></trkpt><trkpt lat="45.061754857983885" lon="0.8260687175317354"><ele>213.0</ele><time>2026-04-10T16:34:32Z</time></trkpt><trkpt lat="45.061648474581816" lon="0.8261034053404316"><ele>214.0</ele><time>2026-04-10T16:34:33Z</time></trkpt><trkpt lat="45.06153159482057" lon="0.8261464128613205"><ele>215.0</ele><time>2026-04-10T16:34:34Z</time></trkpt><trkpt lat="45.061405796451716" lon="0.8261880667365219"><ele>216.0</ele><time>2026-04-10T16:34:35Z</time></trkpt><trkpt lat="45.061281509692286" lon="0.8262456222305661"><ele>217.0</ele><time>2026-04-10T16:34:36Z</time></trkpt><trkpt lat="45.06117222036159" lon="0.8262803245173783"><ele>217.0</ele><time>2026-04-10T16:34:37Z</time></trkpt><trkpt lat="45.06106449523736" lon="0.8263284861849102"><ele>217.0</ele><time>2026-04-10T16:34:38Z</time></trkpt><trkpt lat="45.060949903387716" lon="0.826361924846353"><ele>217.0</ele><time>2026-04-10T16:34:39Z</time></trkpt><trkpt lat="45.06084256953041" lon="0.8264078023003505"><ele>217.0</ele><time>2026-04-10T16:34:40Z</time></trkpt><trkpt lat="45.06072588408204" lon="0.8264607277555582"><ele>219.5</ele><time>2026-04-10T16:34:41Z</time></trkpt><trkpt lat="45.0606044955548" lon="0.8265182115689005"><ele>222.0</ele><time>2026-04-10T16:34:42Z</time></trkpt><trkpt lat="45.06048864440785" lon="0.8265694899902302"><ele>224.5</ele><time>2026-04-10T16:34:43Z</time></trkpt><trkpt lat="45.060377915354415" lon="0.8266119083461313"><ele>227.0</ele><time>2026-04-10T16:34:44Z</time></trkpt><trkpt lat="45.06025257837954" lon="0.8266653319683313"><ele>227.0</ele><time>2026-04-10T16:34:45Z</time></trkpt><trkpt lat="45.06013763544316" lon="0.8267284129457171"><ele>227.0</ele><time>2026-04-10T16:34:46Z</time></trkpt><trkpt lat="45.06000656070975" lon="0.8267743194551492"><ele>227.0</ele><time>2026-04-10T16:34:47Z</time></trkpt><trkpt lat="45.05989361314802" lon="0.8268167466261319"><ele>227.0</ele><time>2026-04-10T16:34:48Z</time></trkpt><trkpt lat="45.05978135945233" lon="0.8268611269852586"><ele>228.39999999999998</ele><time>2026-04-10T16:34:49Z</time></trkpt><trkpt lat="45.059675505642346" lon="0.826908153442881"><ele>229.79999999999998</ele><time>2026-04-10T16:34:50Z</time></trkpt><trkpt lat="45.05957365728687" lon="0.826952010947377"><ele>231.2</ele><time>2026-04-10T16:34:51Z</time></trkpt><trkpt lat="45.059471620631975" lon="0.8269627768149297"><ele>232.6</ele><time>2026-04-10T16:34:52Z</time></trkpt><trkpt lat="45.05936954131443" lon="0.8269952294836888"><ele>234.0</ele><time>2026-04-10T16:34:53Z</time></trkpt><trkpt lat="45.05927987110221" lon="0.8270390064229891"><ele>234.0</ele><time>2026-04-10T16:34:54Z</time></trkpt><trkpt lat="45.05917552758756" lon="0.8270702544091372"><ele>233.99999999999997</ele><time>2026-04-10T16:34:55Z</time></trkpt><trkpt lat="45.059087275508205" lon="0.8271047785000506"><ele>233.99999999999997</ele><time>2026-04-10T16:34:56Z</time></trkpt><trkpt lat="45.05899191488527" lon="0.8271322553303072"><ele>234.0</ele><time>2026-04-10T16:34:57Z</time></trkpt><trkpt lat="45.05889977913455" lon="0.827161735943686"><ele>234.0</ele><time>2026-04-10T16:34:58Z</time></trkpt><trkpt lat="45.058810015199015" lon="0.8271932969628877"><ele>235.39999999999998</ele><time>2026-04-10T16:34:59Z</time></trkpt><trkpt lat="45.058742124483786" lon="0.8272274093491317"><ele>236.79999999999998</ele><time>2026-04-10T16:35:00Z</time></trkpt><trkpt lat="45.058651441100686" lon="0.8272929590250183"><ele>238.20000000000002</ele><time>2026-04-10T16:35:02Z</time></trkpt><trkpt lat="45.05862256399038" lon="0.8274571392134097"><ele>239.60000000000002</ele><time>2026-04-10T16:35:04Z</time></trkpt><trkpt lat="45.05861083602988" lon="0.8276206790977476"><ele>241.0</ele><time>2026-04-10T16:35:06Z</time></trkpt><trkpt lat="45.05859879093623" lon="0.8277108179045263"><ele>241.0</ele><time>2026-04-10T16:35:07Z</time></trkpt><trkpt lat="45.05855410023186" lon="0.8278692949437096"><ele>241.00000000000003</ele><time>2026-04-10T16:35:09Z</time></trkpt><trkpt lat="45.058498907084804" lon="0.828025197161966"><ele>241.00000000000003</ele><time>2026-04-10T16:35:10.999Z</time></trkpt><trkpt lat="45.058395607024515" lon="0.8281088531554262"><ele>241.0</ele><time>2026-04-10T16:35:12.999Z</time></trkpt><trkpt lat="45.05833505338439" lon="0.8281386202177285"><ele>241.0</ele><time>2026-04-10T16:35:13.999Z</time></trkpt><trkpt lat="45.058242494436804" lon="0.828250172991216"><ele>241.33333333333331</ele><time>2026-04-10T16:35:15.999Z</time></trkpt><trkpt lat="45.05820923263433" lon="0.8283328660712449"><ele>241.66666666666666</ele><time>2026-04-10T16:35:16.999Z</time></trkpt><trkpt lat="45.0581557773707" lon="0.8284917052313657"><ele>242.0</ele><time>2026-04-10T16:35:18.999Z</time></trkpt><trkpt lat="45.05813524683469" lon="0.8285779835467864"><ele>242.33333333333331</ele><time>2026-04-10T16:35:19.999Z</time></trkpt><trkpt lat="45.0581323352203" lon="0.8286703299262933"><ele>242.66666666666666</ele><time>2026-04-10T16:35:20.999Z</time></trkpt><trkpt lat="45.058149099002" lon="0.8287647994521742"><ele>243.0</ele><time>2026-04-10T16:35:21.999Z</time></trkpt><trkpt lat="45.05814786260142" lon="0.8288704449293808"><ele>243.71428571428572</ele><time>2026-04-10T16:35:22.999Z</time></trkpt><trkpt lat="45.058172014385846" lon="0.8289683189763086"><ele>244.42857142857144</ele><time>2026-04-10T16:35:23.999Z</time></trkpt><trkpt lat="45.05819619044516" lon="0.829066291367264"><ele>245.14285714285717</ele><time>2026-04-10T16:35:24.999Z</time></trkpt><trkpt lat="45.05822025881345" lon="0.8291638273688899"><ele>245.85714285714286</ele><time>2026-04-10T16:35:25.999Z</time></trkpt><trkpt lat="45.0582428548662" lon="0.8292553969449313"><ele>246.5714285714286</ele><time>2026-04-10T16:35:26.999Z</time></trkpt><trkpt lat="45.058262310489475" lon="0.8293525891666831"><ele>247.2857142857143</ele><time>2026-04-10T16:35:27.999Z</time></trkpt><trkpt lat="45.05828215386917" lon="0.8294520697033831"><ele>248.0</ele><time>2026-04-10T16:35:28.999Z</time></trkpt><trkpt lat="45.05830157020077" lon="0.8295494093934892"><ele>248.0</ele><time>2026-04-10T16:35:29.999Z</time></trkpt><trkpt lat="45.05832356199376" lon="0.8296596606429975"><ele>248.0</ele><time>2026-04-10T16:35:30.999Z</time></trkpt><trkpt lat="45.058361632251696" lon="0.8297804715119342"><ele>248.0</ele><time>2026-04-10T16:35:31.999Z</time></trkpt><trkpt lat="45.05838104182079" lon="0.8299142930155436"><ele>248.0</ele><time>2026-04-10T16:35:32.999Z</time></trkpt><trkpt lat="45.05839265771865" lon="0.8300654737010907"><ele>248.0</ele><time>2026-04-10T16:35:33.999Z</time></trkpt><trkpt lat="45.05841061655408" lon="0.8301937773179728"><ele>249.5</ele><time>2026-04-10T16:35:34.999Z</time></trkpt><trkpt lat="45.05842437520681" lon="0.8303347195886671"><ele>251.0</ele><time>2026-04-10T16:35:35.999Z</time></trkpt><trkpt lat="45.058447670793534" lon="0.8304787793250729"><ele>252.5</ele><time>2026-04-10T16:35:36.999Z</time></trkpt><trkpt lat="45.058494985675694" lon="0.8306437119603796"><ele>254.0</ele><time>2026-04-10T16:35:37.999Z</time></trkpt><trkpt lat="45.05854196405594" lon="0.8308049383933551"><ele>254.0</ele><time>2026-04-10T16:35:38.999Z</time></trkpt><trkpt lat="45.0585520838234" lon="0.8309602317468273"><ele>254.0</ele><time>2026-04-10T16:35:39.999Z</time></trkpt><trkpt lat="45.058585080562935" lon="0.8311290251483958"><ele>254.0</ele><time>2026-04-10T16:35:40.999Z</time></trkpt><trkpt lat="45.058615750597646" lon="0.8312860256375914"><ele>254.0</ele><time>2026-04-10T16:35:41.999Z</time></trkpt><trkpt lat="45.05864617365102" lon="0.8314546538127214"><ele>253.79999999999998</ele><time>2026-04-10T16:35:42.999Z</time></trkpt><trkpt lat="45.058668823912164" lon="0.8316092627495585"><ele>253.59999999999997</ele><time>2026-04-10T16:35:43.999Z</time></trkpt><trkpt lat="45.058687513743955" lon="0.8317573049235203"><ele>253.4</ele><time>2026-04-10T16:35:44.999Z</time></trkpt><trkpt lat="45.058714278058524" lon="0.8319031069563846"><ele>253.2</ele><time>2026-04-10T16:35:45.999Z</time></trkpt><trkpt lat="45.05873127645678" lon="0.8320647982352888"><ele>253.0</ele><time>2026-04-10T16:35:46.999Z</time></trkpt><trkpt lat="45.05873692686721" lon="0.8322237489333298"><ele>253.0</ele><time>2026-04-10T16:35:47.999Z</time></trkpt><trkpt lat="45.05874231955394" lon="0.8323810323539264"><ele>253.0</ele><time>2026-04-10T16:35:48.999Z</time></trkpt><trkpt lat="45.058743609311065" lon="0.8325508746323959"><ele>253.0</ele><time>2026-04-10T16:35:49.999Z</time></trkpt><trkpt lat="45.05874391374917" lon="0.8327212430703775"><ele>253.0</ele><time>2026-04-10T16:35:50.999Z</time></trkpt><trkpt lat="45.0587412732766" lon="0.8328810268257885"><ele>253.25</ele><time>2026-04-10T16:35:51.999Z</time></trkpt><trkpt lat="45.058738763447394" lon="0.8330579318463839"><ele>253.5</ele><time>2026-04-10T16:35:52.999Z</time></trkpt><trkpt lat="45.0587437189499" lon="0.8332572275615971"><ele>253.75</ele><time>2026-04-10T16:35:53.999Z</time></trkpt><trkpt lat="45.058750094817626" lon="0.8334319051650962"><ele>254.0</ele><time>2026-04-10T16:35:54.999Z</time></trkpt><trkpt lat="45.05875088890311" lon="0.8335975535488427"><ele>254.0</ele><time>2026-04-10T16:35:55.999Z</time></trkpt><trkpt lat="45.05873376176001" lon="0.8337725673525479"><ele>254.0</ele><time>2026-04-10T16:35:56.999Z</time></trkpt><trkpt lat="45.05872860731821" lon="0.833943557545831"><ele>254.0</ele><time>2026-04-10T16:35:57.999Z</time></trkpt><trkpt lat="45.05872181884665" lon="0.8341219016733395"><ele>254.0</ele><time>2026-04-10T16:35:58.999Z</time></trkpt><trkpt lat="45.058712499545514" lon="0.8342874306297501"><ele>253.5</ele><time>2026-04-10T16:35:59.999Z</time></trkpt><trkpt lat="45.058708593507404" lon="0.8344485268654341"><ele>253.0</ele><time>2026-04-10T16:36:00.999Z</time></trkpt><trkpt lat="45.05869467625417" lon="0.8346068585455727"><ele>252.5</ele><time>2026-04-10T16:36:01.999Z</time></trkpt><trkpt lat="45.05868614524163" lon="0.8347636945995828"><ele>252.0</ele><time>2026-04-10T16:36:02.999Z</time></trkpt><trkpt lat="45.058688802509735" lon="0.8349398486722428"><ele>252.0</ele><time>2026-04-10T16:36:03.999Z</time></trkpt><trkpt lat="45.058709894289244" lon="0.835119886754878"><ele>252.0</ele><time>2026-04-10T16:36:04.999Z</time></trkpt><trkpt lat="45.05873145746233" lon="0.8352968750340104"><ele>252.0</ele><time>2026-04-10T16:36:05.999Z</time></trkpt><trkpt lat="45.05873946133428" lon="0.8354802866627258"><ele>252.0</ele><time>2026-04-10T16:36:06.998Z</time></trkpt><trkpt lat="45.058780781502804" lon="0.8356504362275863"><ele>251.5</ele><time>2026-04-10T16:36:07.998Z</time></trkpt><trkpt lat="45.0587914211213" lon="0.8358061596450287"><ele>251.0</ele><time>2026-04-10T16:36:08.998Z</time></trkpt><trkpt lat="45.05881819600264" lon="0.8359714924111232"><ele>250.5</ele><time>2026-04-10T16:36:09.998Z</time></trkpt><trkpt lat="45.05885681035549" lon="0.8361240295388843"><ele>250.0</ele><time>2026-04-10T16:36:10.998Z</time></trkpt><trkpt lat="45.05887028547913" lon="0.8362936563744902"><ele>250.0</ele><time>2026-04-10T16:36:11.998Z</time></trkpt><trkpt lat="45.05889557480533" lon="0.836461470490314"><ele>250.0</ele><time>2026-04-10T16:36:12.998Z</time></trkpt><trkpt lat="45.05892172567519" lon="0.8366350019100988"><ele>250.0</ele><time>2026-04-10T16:36:13.998Z</time></trkpt><trkpt lat="45.05896140802728" lon="0.8367980379890256"><ele>250.0</ele><time>2026-04-10T16:36:14.998Z</time></trkpt><trkpt lat="45.05897986596714" lon="0.8369633656442642"><ele>250.6</ele><time>2026-04-10T16:36:15.998Z</time></trkpt><trkpt lat="45.05899434382356" lon="0.8371193106635668"><ele>251.2</ele><time>2026-04-10T16:36:16.998Z</time></trkpt><trkpt lat="45.05901728900921" lon="0.8372637668284555"><ele>251.8</ele><time>2026-04-10T16:36:17.998Z</time></trkpt><trkpt lat="45.059062475165696" lon="0.8374138192541003"><ele>252.4</ele><time>2026-04-10T16:36:18.998Z</time></trkpt><trkpt lat="45.05909799883259" lon="0.8375728909011919"><ele>253.0</ele><time>2026-04-10T16:36:19.998Z</time></trkpt><trkpt lat="45.05912718091455" lon="0.8377215489080714"><ele>254.0</ele><time>2026-04-10T16:36:20.998Z</time></trkpt><trkpt lat="45.059159070350056" lon="0.8378635345049672"><ele>255.0</ele><time>2026-04-10T16:36:21.998Z</time></trkpt><trkpt lat="45.05918870071119" lon="0.8379938805020478"><ele>256.0</ele><time>2026-04-10T16:36:22.998Z</time></trkpt><trkpt lat="45.059191464910576" lon="0.8381166235021515"><ele>257.0</ele><time>2026-04-10T16:36:23.998Z</time></trkpt><trkpt lat="45.059178553948" lon="0.8382508302270312"><ele>258.0</ele><time>2026-04-10T16:36:24.998Z</time></trkpt><trkpt lat="45.05926879916851" lon="0.8383871100422268"><ele>258.75</ele><time>2026-04-10T16:36:25.998Z</time></trkpt><trkpt lat="45.0592997167658" lon="0.838536458775025"><ele>259.5</ele><time>2026-04-10T16:36:26.998Z</time></trkpt><trkpt lat="45.059343413741786" lon="0.8387173893303377"><ele>260.25</ele><time>2026-04-10T16:36:27.998Z</time></trkpt><trkpt lat="45.05939611509063" lon="0.838935056033986"><ele>261.0</ele><time>2026-04-10T16:36:28.998Z</time></trkpt><trkpt lat="45.05945114370252" lon="0.839207622743809"><ele>261.3333333333333</ele><time>2026-04-10T16:36:29.998Z</time></trkpt><trkpt lat="45.0595116032678" lon="0.839497925254334"><ele>261.66666666666663</ele><time>2026-04-10T16:36:30.998Z</time></trkpt><trkpt lat="45.0595669906827" lon="0.8398031840295501"><ele>262.0</ele><time>2026-04-10T16:36:31.998Z</time></trkpt><trkpt lat="45.05960732928504" lon="0.8400712787935046"><ele>262.0</ele><time>2026-04-10T16:36:32.998Z</time></trkpt><trkpt lat="45.05963388301759" lon="0.8402758149402291"><ele>262.0</ele><time>2026-04-10T16:36:33.998Z</time></trkpt><trkpt lat="45.05965995838677" lon="0.8404654121145386"><ele>262.0</ele><time>2026-04-10T16:36:34.998Z</time></trkpt><trkpt lat="45.059684718851614" lon="0.8406223225296838"><ele>262.0</ele><time>2026-04-10T16:36:35.998Z</time></trkpt><trkpt lat="45.05974668614008" lon="0.8407821499785032"><ele>262.0</ele><time>2026-04-10T16:36:36.998Z</time></trkpt><trkpt lat="45.05983105576205" lon="0.840941323871011"><ele>262.0</ele><time>2026-04-10T16:36:38Z</time></trkpt><trkpt lat="45.05990616841111" lon="0.8410745400117436"><ele>262.0</ele><time>2026-04-10T16:36:39Z</time></trkpt><trkpt lat="45.0599782735844" lon="0.8411945153543412"><ele>262.0</ele><time>2026-04-10T16:36:40Z</time></trkpt><trkpt lat="45.06004099927405" lon="0.8413094559477948"><ele>262.0</ele><time>2026-04-10T16:36:41Z</time></trkpt><trkpt lat="45.06011482361292" lon="0.8414334754419206"><ele>262.0</ele><time>2026-04-10T16:36:42Z</time></trkpt><trkpt lat="45.06018936473298" lon="0.8415640256517213"><ele>262.0</ele><time>2026-04-10T16:36:43Z</time></trkpt><trkpt lat="45.060246024683224" lon="0.8416937776009078"><ele>262.0</ele><time>2026-04-10T16:36:44Z</time></trkpt><trkpt lat="45.0603016091069" lon="0.8418283760304974"><ele>262.0</ele><time>2026-04-10T16:36:45Z</time></trkpt><trkpt lat="45.060349445177785" lon="0.8419413553637484"><ele>262.0</ele><time>2026-04-10T16:36:46Z</time></trkpt><trkpt lat="45.06039175152946" lon="0.8420437089228406"><ele>262.0</ele><time>2026-04-10T16:36:47Z</time></trkpt><trkpt lat="45.060444885715725" lon="0.842136438003547"><ele>262.0</ele><time>2026-04-10T16:36:48Z</time></trkpt><trkpt lat="45.060494630610954" lon="0.842217862117452"><ele>262.0</ele><time>2026-04-10T16:36:49Z</time></trkpt><trkpt lat="45.06055656276776" lon="0.842339685857231"><ele>262.0</ele><time>2026-04-10T16:36:51Z</time></trkpt><trkpt lat="45.0605056422678" lon="0.842445204358634"><ele>262.0</ele><time>2026-04-10T16:36:53Z</time></trkpt><trkpt lat="45.06042853758598" lon="0.842512700295193"><ele>262.0</ele><time>2026-04-10T16:36:54Z</time></trkpt><trkpt lat="45.060345634731824" lon="0.8426219564541584"><ele>262.0</ele><time>2026-04-10T16:36:55Z</time></trkpt><trkpt lat="45.06024725791131" lon="0.8427959729260437"><ele>262.0</ele><time>2026-04-10T16:36:56Z</time></trkpt><trkpt lat="45.06012490288408" lon="0.8430057075508021"><ele>261.3333333333333</ele><time>2026-04-10T16:36:57Z</time></trkpt><trkpt lat="45.06001033527425" lon="0.8432173996878365"><ele>260.6666666666667</ele><time>2026-04-10T16:36:58Z</time></trkpt><trkpt lat="45.059898026078855" lon="0.8433743721771255"><ele>260.0</ele><time>2026-04-10T16:36:59Z</time></trkpt><trkpt lat="45.059806011027426" lon="0.8435319910882398"><ele>260.0</ele><time>2026-04-10T16:37:00Z</time></trkpt><trkpt lat="45.059736199769766" lon="0.8436752587119964"><ele>260.0</ele><time>2026-04-10T16:37:01Z</time></trkpt><trkpt lat="45.0596772754448" lon="0.8438036183368833"><ele>260.0</ele><time>2026-04-10T16:37:02Z</time></trkpt><trkpt lat="45.05960797572269" lon="0.8439100758395103"><ele>260.0</ele><time>2026-04-10T16:37:03Z</time></trkpt><trkpt lat="45.05955138647437" lon="0.8439933512952464"><ele>260.0</ele><time>2026-04-10T16:37:04Z</time></trkpt><trkpt lat="45.05950286533909" lon="0.8441259013835855"><ele>260.33333333333337</ele><time>2026-04-10T16:37:05Z</time></trkpt><trkpt lat="45.0594653811749" lon="0.8442987154275247"><ele>260.6666666666667</ele><time>2026-04-10T16:37:06Z</time></trkpt><trkpt lat="45.05942069856079" lon="0.8445151208806359"><ele>261.0</ele><time>2026-04-10T16:37:07Z</time></trkpt><trkpt lat="45.05935700523492" lon="0.8447569748927178"><ele>261.0</ele><time>2026-04-10T16:37:08Z</time></trkpt><trkpt lat="45.05927560043382" lon="0.844976572982033"><ele>261.0</ele><time>2026-04-10T16:37:09Z</time></trkpt><trkpt lat="45.05920461591585" lon="0.8451499653145611"><ele>261.0</ele><time>2026-04-10T16:37:10Z</time></trkpt><trkpt lat="45.05917101440185" lon="0.8453417405338599"><ele>260.75</ele><time>2026-04-10T16:37:11Z</time></trkpt><trkpt lat="45.05915328165581" lon="0.8455681843410493"><ele>260.5</ele><time>2026-04-10T16:37:12Z</time></trkpt><trkpt lat="45.059129850537474" lon="0.8457573983143432"><ele>260.25</ele><time>2026-04-10T16:37:13Z</time></trkpt><trkpt lat="45.059115768655346" lon="0.8459244445053778"><ele>260.0</ele><time>2026-04-10T16:37:14Z</time></trkpt><trkpt lat="45.05909987308819" lon="0.8460879040799053"><ele>259.0</ele><time>2026-04-10T16:37:15Z</time></trkpt><trkpt lat="45.05908960086719" lon="0.8462379670951956"><ele>258.0</ele><time>2026-04-10T16:37:16Z</time></trkpt><trkpt lat="45.05909306496716" lon="0.8463633011125776"><ele>257.0</ele><time>2026-04-10T16:37:17Z</time></trkpt><trkpt lat="45.05909754108479" lon="0.8464964433603521"><ele>256.0</ele><time>2026-04-10T16:37:18Z</time></trkpt><trkpt lat="45.05910813833752" lon="0.8466243415997512"><ele>255.0</ele><time>2026-04-10T16:37:18.999Z</time></trkpt><trkpt lat="45.05910392273349" lon="0.8467570103230848"><ele>255.0</ele><time>2026-04-10T16:37:19.999Z</time></trkpt><trkpt lat="45.05908528005991" lon="0.8468712912586838"><ele>255.0</ele><time>2026-04-10T16:37:20.999Z</time></trkpt><trkpt lat="45.05906667301367" lon="0.8469674490529135"><ele>255.0</ele><time>2026-04-10T16:37:21.999Z</time></trkpt><trkpt lat="45.05902390637271" lon="0.8470374031328128"><ele>255.0</ele><time>2026-04-10T16:37:22.999Z</time></trkpt><trkpt lat="45.05896948536088" lon="0.8471279714283027"><ele>255.0</ele><time>2026-04-10T16:37:23.999Z</time></trkpt><trkpt lat="45.05890800562656" lon="0.847206926988341"><ele>255.0</ele><time>2026-04-10T16:37:24.999Z</time></trkpt><trkpt lat="45.05885392897655" lon="0.8472870358657997"><ele>255.0</ele><time>2026-04-10T16:37:25.999Z</time></trkpt><trkpt lat="45.058808665340194" lon="0.8473504149902414"><ele>255.0</ele><time>2026-04-10T16:37:26.999Z</time></trkpt><trkpt lat="45.05877665137952" lon="0.8474275663162268"><ele>255.0</ele><time>2026-04-10T16:37:27.999Z</time></trkpt><trkpt lat="45.058775861295324" lon="0.8475860945761473"><ele>255.0</ele><time>2026-04-10T16:37:29.999Z</time></trkpt><trkpt lat="45.05879220109704" lon="0.8476888521622664"><ele>255.0</ele><time>2026-04-10T16:37:31.999Z</time></trkpt><trkpt lat="45.058719483811174" lon="0.8478267326519103"><ele>255.0</ele><time>2026-04-10T16:37:38.999Z</time></trkpt><trkpt lat="45.0586565505739" lon="0.847923832799486"><ele>254.4</ele><time>2026-04-10T16:37:39.999Z</time></trkpt><trkpt lat="45.05860725273637" lon="0.8480374712855198"><ele>253.8</ele><time>2026-04-10T16:37:40.999Z</time></trkpt><trkpt lat="45.0585635352032" lon="0.8481805593405043"><ele>253.2</ele><time>2026-04-10T16:37:41.999Z</time></trkpt><trkpt lat="45.0585202389506" lon="0.8483361769279745"><ele>252.6</ele><time>2026-04-10T16:37:42.999Z</time></trkpt><trkpt lat="45.05848097017607" lon="0.8484730371793321"><ele>252.0</ele><time>2026-04-10T16:37:43.999Z</time></trkpt><trkpt lat="45.0584322209278" lon="0.8485876112559326"><ele>251.8</ele><time>2026-04-10T16:37:44.999Z</time></trkpt><trkpt lat="45.058372648256075" lon="0.8486810925343521"><ele>251.6</ele><time>2026-04-10T16:37:45.999Z</time></trkpt><trkpt lat="45.05831124282398" lon="0.8487800489518593"><ele>251.40000000000003</ele><time>2026-04-10T16:37:46.999Z</time></trkpt><trkpt lat="45.058242015328695" lon="0.8488583579158843"><ele>251.20000000000002</ele><time>2026-04-10T16:37:47.999Z</time></trkpt><trkpt lat="45.058157886131205" lon="0.8489239479872542"><ele>251.0</ele><time>2026-04-10T16:37:48.999Z</time></trkpt><trkpt lat="45.05806842649263" lon="0.8489796481789204"><ele>251.0</ele><time>2026-04-10T16:37:49.999Z</time></trkpt><trkpt lat="45.05797696387818" lon="0.8490393829511792"><ele>251.00000000000003</ele><time>2026-04-10T16:37:50.999Z</time></trkpt><trkpt lat="45.05789368239435" lon="0.8491018987894311"><ele>251.00000000000003</ele><time>2026-04-10T16:37:51.999Z</time></trkpt><trkpt lat="45.05780862148449" lon="0.8491624482905362"><ele>251.0</ele><time>2026-04-10T16:37:52.999Z</time></trkpt><trkpt lat="45.0577215645745" lon="0.8492177903451718"><ele>251.0</ele><time>2026-04-10T16:37:53.999Z</time></trkpt><trkpt lat="45.05763876367102" lon="0.8492766248639567"><ele>250.4</ele><time>2026-04-10T16:37:54.999Z</time></trkpt><trkpt lat="45.05756401731077" lon="0.8493457875682587"><ele>249.8</ele><time>2026-04-10T16:37:55.999Z</time></trkpt><trkpt lat="45.05750656335796" lon="0.8494162819145481"><ele>249.20000000000002</ele><time>2026-04-10T16:37:56.999Z</time></trkpt><trkpt lat="45.05743189956666" lon="0.8494985178988378"><ele>248.60000000000002</ele><time>2026-04-10T16:37:58.999Z</time></trkpt><trkpt lat="45.05735694254608" lon="0.8496127003193336"><ele>248.0</ele><time>2026-04-10T16:38:02.999Z</time></trkpt><trkpt lat="45.057290473470005" lon="0.8497049507160748"><ele>248.0</ele><time>2026-04-10T16:38:03.999Z</time></trkpt><trkpt lat="45.057193176867166" lon="0.849785696131495"><ele>248.0</ele><time>2026-04-10T16:38:04.999Z</time></trkpt><trkpt lat="45.05710077633458" lon="0.8498893984351347"><ele>248.0</ele><time>2026-04-10T16:38:05.999Z</time></trkpt><trkpt lat="45.05699710607658" lon="0.8500034306213333"><ele>248.0</ele><time>2026-04-10T16:38:06.999Z</time></trkpt><trkpt lat="45.05689120179749" lon="0.8501078058967152"><ele>248.2</ele><time>2026-04-10T16:38:07.999Z</time></trkpt><trkpt lat="45.05679598742184" lon="0.8501971412080719"><ele>248.4</ele><time>2026-04-10T16:38:08.999Z</time></trkpt><trkpt lat="45.05670336337738" lon="0.8502840461645617"><ele>248.59999999999997</ele><time>2026-04-10T16:38:09.999Z</time></trkpt><trkpt lat="45.05661543541485" lon="0.8503665449658824"><ele>248.79999999999998</ele><time>2026-04-10T16:38:10.999Z</time></trkpt><trkpt lat="45.05653448151089" lon="0.8504453314266905"><ele>249.0</ele><time>2026-04-10T16:38:11.999Z</time></trkpt><trkpt lat="45.05645691670473" lon="0.8505260820725711"><ele>249.6</ele><time>2026-04-10T16:38:12.999Z</time></trkpt><trkpt lat="45.05637798063985" lon="0.8506043011070117"><ele>250.2</ele><time>2026-04-10T16:38:13.998Z</time></trkpt><trkpt lat="45.05629681593555" lon="0.8506904977239502"><ele>250.79999999999998</ele><time>2026-04-10T16:38:14.998Z</time></trkpt><trkpt lat="45.05620826817213" lon="0.8507752167684226"><ele>251.39999999999998</ele><time>2026-04-10T16:38:15.998Z</time></trkpt><trkpt lat="45.056110494587735" lon="0.8508577925517998"><ele>252.0</ele><time>2026-04-10T16:38:16.998Z</time></trkpt><trkpt lat="45.05601030659642" lon="0.8509499927431583"><ele>252.5</ele><time>2026-04-10T16:38:17.998Z</time></trkpt><trkpt lat="45.05589889366299" lon="0.8510517942825296"><ele>253.0</ele><time>2026-04-10T16:38:18.998Z</time></trkpt><trkpt lat="45.05579265257439" lon="0.8511563448127688"><ele>253.5</ele><time>2026-04-10T16:38:19.998Z</time></trkpt><trkpt lat="45.05567696639177" lon="0.851257627723771"><ele>254.0</ele><time>2026-04-10T16:38:20.998Z</time></trkpt><trkpt lat="45.055566524991576" lon="0.8513591418715617"><ele>255.5</ele><time>2026-04-10T16:38:21.998Z</time></trkpt><trkpt lat="45.055457091398964" lon="0.8514659873724918"><ele>257.0</ele><time>2026-04-10T16:38:22.998Z</time></trkpt><trkpt lat="45.0553471038405" lon="0.8515671872627297"><ele>258.5</ele><time>2026-04-10T16:38:23.998Z</time></trkpt><trkpt lat="45.05523450961011" lon="0.8516821105943269"><ele>260.0</ele><time>2026-04-10T16:38:24.998Z</time></trkpt><trkpt lat="45.055129722255" lon="0.8517801342244058"><ele>261.0</ele><time>2026-04-10T16:38:25.998Z</time></trkpt><trkpt lat="45.05502328031008" lon="0.8518839939850434"><ele>262.0</ele><time>2026-04-10T16:38:26.998Z</time></trkpt><trkpt lat="45.054922702405435" lon="0.8519737248667223"><ele>263.0</ele><time>2026-04-10T16:38:27.998Z</time></trkpt><trkpt lat="45.05481659426615" lon="0.8520514733672859"><ele>264.0</ele><time>2026-04-10T16:38:28.998Z</time></trkpt><trkpt lat="45.054708985038886" lon="0.8521277695557345"><ele>264.0</ele><time>2026-04-10T16:38:29.998Z</time></trkpt><trkpt lat="45.05460343477667" lon="0.8522148263500655"><ele>264.0</ele><time>2026-04-10T16:38:30.998Z</time></trkpt><trkpt lat="45.05451207217337" lon="0.8522770909237325"><ele>264.0</ele><time>2026-04-10T16:38:31.998Z</time></trkpt><trkpt lat="45.054403133429986" lon="0.8523680705771132"><ele>264.0</ele><time>2026-04-10T16:38:32.998Z</time></trkpt><trkpt lat="45.05429146223046" lon="0.852456069127724"><ele>264.0</ele><time>2026-04-10T16:38:33.998Z</time></trkpt><trkpt lat="45.05418963204119" lon="0.8525593191640077"><ele>264.0</ele><time>2026-04-10T16:38:34.998Z</time></trkpt><trkpt lat="45.0540901477341" lon="0.8526601177743806"><ele>264.0</ele><time>2026-04-10T16:38:35.998Z</time></trkpt><trkpt lat="45.05399299481541" lon="0.8527730017319176"><ele>264.0</ele><time>2026-04-10T16:38:36.998Z</time></trkpt><trkpt lat="45.05389260349412" lon="0.852886425811124"><ele>263.75</ele><time>2026-04-10T16:38:37.998Z</time></trkpt><trkpt lat="45.05378266383326" lon="0.85300719031937"><ele>263.5</ele><time>2026-04-10T16:38:38.998Z</time></trkpt><trkpt lat="45.05368058516455" lon="0.853132720405563"><ele>263.25</ele><time>2026-04-10T16:38:39.998Z</time></trkpt><trkpt lat="45.05359875585737" lon="0.8532238311257061"><ele>263.0</ele><time>2026-04-10T16:38:40.998Z</time></trkpt><trkpt lat="45.05352364452824" lon="0.8533461888758204"><ele>262.5</ele><time>2026-04-10T16:38:41.998Z</time></trkpt><trkpt lat="45.053455054221786" lon="0.8534747948560265"><ele>262.0</ele><time>2026-04-10T16:38:42.998Z</time></trkpt><trkpt lat="45.05341636822642" lon="0.8536298258101377"><ele>261.5</ele><time>2026-04-10T16:38:44Z</time></trkpt><trkpt lat="45.05340599746373" lon="0.8538034420670346"><ele>261.0</ele><time>2026-04-10T16:38:45Z</time></trkpt><trkpt lat="45.053390672529446" lon="0.8539793777817968"><ele>261.0</ele><time>2026-04-10T16:38:46Z</time></trkpt><trkpt lat="45.053392034161305" lon="0.8541475394650394"><ele>261.0</ele><time>2026-04-10T16:38:47Z</time></trkpt><trkpt lat="45.05339332832158" lon="0.8543073680879056"><ele>261.0</ele><time>2026-04-10T16:38:48Z</time></trkpt><trkpt lat="45.05339464784714" lon="0.8544703296275403"><ele>261.0</ele><time>2026-04-10T16:38:49Z</time></trkpt><trkpt lat="45.05339635865448" lon="0.8546356164532409"><ele>261.0</ele><time>2026-04-10T16:38:50Z</time></trkpt><trkpt lat="45.05340636435459" lon="0.8548015679571188"><ele>261.0</ele><time>2026-04-10T16:38:51Z</time></trkpt><trkpt lat="45.053413192532155" lon="0.8549676788306214"><ele>261.0</ele><time>2026-04-10T16:38:52Z</time></trkpt><trkpt lat="45.05341095386428" lon="0.8551251451271642"><ele>261.0</ele><time>2026-04-10T16:38:53Z</time></trkpt><trkpt lat="45.05341051309684" lon="0.8552707691821257"><ele>261.0</ele><time>2026-04-10T16:38:54Z</time></trkpt><trkpt lat="45.05341361600754" lon="0.8554137119814672"><ele>260.40000000000003</ele><time>2026-04-10T16:38:55Z</time></trkpt><trkpt lat="45.0534030884797" lon="0.8555649060284498"><ele>259.8</ele><time>2026-04-10T16:38:56Z</time></trkpt><trkpt lat="45.05337961641128" lon="0.8557201271097923"><ele>259.20000000000005</ele><time>2026-04-10T16:38:57Z</time></trkpt><trkpt lat="45.053323598998" lon="0.8558518667411223"><ele>258.6</ele><time>2026-04-10T16:38:58Z</time></trkpt><trkpt lat="45.05325774495171" lon="0.8559799424637825"><ele>258.0</ele><time>2026-04-10T16:38:59Z</time></trkpt><trkpt lat="45.05318739785768" lon="0.856108801216446"><ele>256.5</ele><time>2026-04-10T16:39:00Z</time></trkpt><trkpt lat="45.053126781834614" lon="0.8562443722757942"><ele>255.0</ele><time>2026-04-10T16:39:01Z</time></trkpt><trkpt lat="45.053051333857" lon="0.8563601242092589"><ele>253.5</ele><time>2026-04-10T16:39:02Z</time></trkpt><trkpt lat="45.05297369700104" lon="0.8564849735287163"><ele>252.0</ele><time>2026-04-10T16:39:03Z</time></trkpt><trkpt lat="45.052893251635126" lon="0.8566058260467099"><ele>252.0</ele><time>2026-04-10T16:39:04Z</time></trkpt><trkpt lat="45.052821024839034" lon="0.856742396986889"><ele>252.0</ele><time>2026-04-10T16:39:05Z</time></trkpt><trkpt lat="45.052746269031786" lon="0.8568799490449479"><ele>252.0</ele><time>2026-04-10T16:39:06Z</time></trkpt><trkpt lat="45.05266496262909" lon="0.8570058397929811"><ele>252.0</ele><time>2026-04-10T16:39:07Z</time></trkpt><trkpt lat="45.05258576055344" lon="0.8571293229496653"><ele>251.2</ele><time>2026-04-10T16:39:08Z</time></trkpt><trkpt lat="45.05251186822299" lon="0.857251883573712"><ele>250.39999999999998</ele><time>2026-04-10T16:39:09Z</time></trkpt><trkpt lat="45.052442175920355" lon="0.8573719346134338"><ele>249.60000000000002</ele><time>2026-04-10T16:39:10Z</time></trkpt><trkpt lat="45.05237431784471" lon="0.8574852486276188"><ele>248.8</ele><time>2026-04-10T16:39:11Z</time></trkpt><trkpt lat="45.05230792699972" lon="0.8575933118567765"><ele>248.0</ele><time>2026-04-10T16:39:12Z</time></trkpt><trkpt lat="45.05224343547288" lon="0.8577067180329813"><ele>247.25</ele><time>2026-04-10T16:39:13Z</time></trkpt><trkpt lat="45.05218187331116" lon="0.8578258105240317"><ele>246.5</ele><time>2026-04-10T16:39:14Z</time></trkpt><trkpt lat="45.052103671773466" lon="0.8579623616570321"><ele>245.75</ele><time>2026-04-10T16:39:15Z</time></trkpt><trkpt lat="45.05202536856517" lon="0.858114245712157"><ele>245.0</ele><time>2026-04-10T16:39:16Z</time></trkpt><trkpt lat="45.05195055440301" lon="0.8582815643861498"><ele>245.0</ele><time>2026-04-10T16:39:17Z</time></trkpt><trkpt lat="45.05188860193043" lon="0.8584454047215795"><ele>245.0</ele><time>2026-04-10T16:39:18Z</time></trkpt><trkpt lat="45.05182418636555" lon="0.8585985440119016"><ele>245.0</ele><time>2026-04-10T16:39:19Z</time></trkpt><trkpt lat="45.05175828503475" lon="0.8587479829695094"><ele>245.0</ele><time>2026-04-10T16:39:20Z</time></trkpt><trkpt lat="45.051689031271636" lon="0.8589030763371646"><ele>245.0</ele><time>2026-04-10T16:39:21Z</time></trkpt><trkpt lat="45.051630400103704" lon="0.8590391307762684"><ele>245.0</ele><time>2026-04-10T16:39:22Z</time></trkpt><trkpt lat="45.051588318039684" lon="0.8591675174931029"><ele>245.0</ele><time>2026-04-10T16:39:22.999Z</time></trkpt><trkpt lat="45.05157836218025" lon="0.8593053273676028"><ele>245.0</ele><time>2026-04-10T16:39:23.999Z</time></trkpt><trkpt lat="45.05160352944748" lon="0.8594318113514622"><ele>245.0</ele><time>2026-04-10T16:39:24.999Z</time></trkpt><trkpt lat="45.05164545245744" lon="0.8595437980497087"><ele>245.50000000000003</ele><time>2026-04-10T16:39:25.999Z</time></trkpt><trkpt lat="45.0516619247968" lon="0.8596547629424813"><ele>246.0</ele><time>2026-04-10T16:39:26.999Z</time></trkpt><trkpt lat="45.05167785478273" lon="0.8597439391615712"><ele>246.5</ele><time>2026-04-10T16:39:27.999Z</time></trkpt><trkpt lat="45.0516907296675" lon="0.8598757645842632"><ele>247.0</ele><time>2026-04-10T16:39:29.999Z</time></trkpt><trkpt lat="45.05163614211912" lon="0.8600292848269566"><ele>247.50000000000003</ele><time>2026-04-10T16:39:46.999Z</time></trkpt><trkpt lat="45.05160154264759" lon="0.8601395674481312"><ele>248.0</ele><time>2026-04-10T16:39:47.999Z</time></trkpt><trkpt lat="45.05154543424135" lon="0.8602524890038564"><ele>248.60000000000002</ele><time>2026-04-10T16:39:48.999Z</time></trkpt><trkpt lat="45.0514445406191" lon="0.8603015016297805"><ele>249.20000000000002</ele><time>2026-04-10T16:39:49.999Z</time></trkpt><trkpt lat="45.05134072876595" lon="0.8602986966443585"><ele>249.8</ele><time>2026-04-10T16:39:50.999Z</time></trkpt><trkpt lat="45.051232772667404" lon="0.8603217864356605"><ele>250.4</ele><time>2026-04-10T16:39:51.999Z</time></trkpt><trkpt lat="45.05114806444542" lon="0.8603391447125459"><ele>251.0</ele><time>2026-04-10T16:39:52.999Z</time></trkpt><trkpt lat="45.0510705843652" lon="0.8603533142333161"><ele>251.0</ele><time>2026-04-10T16:39:53.999Z</time></trkpt><trkpt lat="45.05099777792348" lon="0.860366354722165"><ele>251.00000000000003</ele><time>2026-04-10T16:39:54.999Z</time></trkpt><trkpt lat="45.0509319611736" lon="0.8603801456631451"><ele>251.00000000000003</ele><time>2026-04-10T16:39:55.999Z</time></trkpt><trkpt lat="45.05083118694815" lon="0.860382834275253"><ele>251.0</ele><time>2026-04-10T16:39:57.999Z</time></trkpt><trkpt lat="45.05081555094799" lon="0.8606338082897388"><ele>251.0</ele><time>2026-04-10T16:39:58.999Z</time></trkpt><trkpt lat="45.050797489964445" lon="0.8607376672960151"><ele>251.66666666666669</ele><time>2026-04-10T16:39:59.999Z</time></trkpt><trkpt lat="45.050777795490745" lon="0.8608514928335451"><ele>252.33333333333334</ele><time>2026-04-10T16:40:00.999Z</time></trkpt><trkpt lat="45.05073149336083" lon="0.8609569108362021"><ele>253.0</ele><time>2026-04-10T16:40:01.999Z</time></trkpt><trkpt lat="45.050699174071895" lon="0.8610827553997986"><ele>253.66666666666669</ele><time>2026-04-10T16:40:02.999Z</time></trkpt><trkpt lat="45.05067322194483" lon="0.8611838076211831"><ele>254.33333333333334</ele><time>2026-04-10T16:40:03.999Z</time></trkpt><trkpt lat="45.05065938169226" lon="0.8613060337000786"><ele>255.0</ele><time>2026-04-10T16:40:04.999Z</time></trkpt><trkpt lat="45.05061989048136" lon="0.8614361379035226"><ele>256.75</ele><time>2026-04-10T16:40:05.999Z</time></trkpt><trkpt lat="45.050580698855974" lon="0.8615872508893816"><ele>258.5</ele><time>2026-04-10T16:40:06.999Z</time></trkpt><trkpt lat="45.05052854766758" lon="0.861741675522281"><ele>260.25</ele><time>2026-04-10T16:40:07.999Z</time></trkpt><trkpt lat="45.0504961742909" lon="0.8619281332282206"><ele>262.0</ele><time>2026-04-10T16:40:08.999Z</time></trkpt><trkpt lat="45.050435124554944" lon="0.8620947985653472"><ele>263.0</ele><time>2026-04-10T16:40:09.999Z</time></trkpt><trkpt lat="45.050385227283606" lon="0.8622832221601034"><ele>264.0</ele><time>2026-04-10T16:40:10.999Z</time></trkpt><trkpt lat="45.05033429402074" lon="0.86248341548076"><ele>265.0</ele><time>2026-04-10T16:40:11.999Z</time></trkpt><trkpt lat="45.050299158161415" lon="0.8626841592527447"><ele>266.0</ele><time>2026-04-10T16:40:12.999Z</time></trkpt><trkpt lat="45.050244509266825" lon="0.862874410020473"><ele>266.0</ele><time>2026-04-10T16:40:13.999Z</time></trkpt><trkpt lat="45.050193299023434" lon="0.863069699431211"><ele>266.0</ele><time>2026-04-10T16:40:14.999Z</time></trkpt><trkpt lat="45.05014408141682" lon="0.8632624128818124"><ele>266.0</ele><time>2026-04-10T16:40:15.998Z</time></trkpt><trkpt lat="45.05009448933128" lon="0.8634593376858885"><ele>266.0</ele><time>2026-04-10T16:40:16.998Z</time></trkpt><trkpt lat="45.05004291440605" lon="0.8636450212256963"><ele>266.0</ele><time>2026-04-10T16:40:17.998Z</time></trkpt><trkpt lat="45.049996210223824" lon="0.8638435220627246"><ele>266.0</ele><time>2026-04-10T16:40:18.998Z</time></trkpt><trkpt lat="45.04995129117471" lon="0.8640359701614477"><ele>266.0</ele><time>2026-04-10T16:40:19.998Z</time></trkpt><trkpt lat="45.04989582755619" lon="0.8642295057945418"><ele>266.0</ele><time>2026-04-10T16:40:20.998Z</time></trkpt><trkpt lat="45.04984642256058" lon="0.8644213473256929"><ele>265.0</ele><time>2026-04-10T16:40:21.998Z</time></trkpt><trkpt lat="45.049794377043796" lon="0.8646104703614755"><ele>264.0</ele><time>2026-04-10T16:40:22.998Z</time></trkpt><trkpt lat="45.04974476399972" lon="0.8648056637655073"><ele>263.0</ele><time>2026-04-10T16:40:23.998Z</time></trkpt><trkpt lat="45.049696299373416" lon="0.8649912822851457"><ele>262.0</ele><time>2026-04-10T16:40:24.998Z</time></trkpt><trkpt lat="45.04965057051856" lon="0.8651868804530245"><ele>261.75</ele><time>2026-04-10T16:40:25.998Z</time></trkpt><trkpt lat="45.04960480155322" lon="0.8653601255277827"><ele>261.5</ele><time>2026-04-10T16:40:26.998Z</time></trkpt><trkpt lat="45.04955840839161" lon="0.865538670141507"><ele>261.25</ele><time>2026-04-10T16:40:27.998Z</time></trkpt><trkpt lat="45.04951277000294" lon="0.8657195617761155"><ele>261.0</ele><time>2026-04-10T16:40:28.998Z</time></trkpt><trkpt lat="45.049466474367605" lon="0.8659097698744308"><ele>260.5</ele><time>2026-04-10T16:40:29.998Z</time></trkpt><trkpt lat="45.049423096470605" lon="0.8660960390042279"><ele>260.0</ele><time>2026-04-10T16:40:30.998Z</time></trkpt><trkpt lat="45.049375397430694" lon="0.8662838859266655"><ele>259.5</ele><time>2026-04-10T16:40:31.998Z</time></trkpt><trkpt lat="45.04933024640232" lon="0.8664599015586596"><ele>259.0</ele><time>2026-04-10T16:40:32.998Z</time></trkpt><trkpt lat="45.049284668238954" lon="0.8666464730088063"><ele>258.75</ele><time>2026-04-10T16:40:33.998Z</time></trkpt><trkpt lat="45.049242072304814" lon="0.8668331624300171"><ele>258.5</ele><time>2026-04-10T16:40:34.998Z</time></trkpt><trkpt lat="45.04919138503397" lon="0.8670177892533146"><ele>258.25</ele><time>2026-04-10T16:40:35.998Z</time></trkpt><trkpt lat="45.049134282482626" lon="0.8672037769308303"><ele>258.0</ele><time>2026-04-10T16:40:36.998Z</time></trkpt><trkpt lat="45.04908776152505" lon="0.8673869549156801"><ele>258.0</ele><time>2026-04-10T16:40:37.998Z</time></trkpt><trkpt lat="45.04903854717422" lon="0.8675789106063936"><ele>258.0</ele><time>2026-04-10T16:40:38.998Z</time></trkpt><trkpt lat="45.0489960794835" lon="0.8677607842617531"><ele>258.0</ele><time>2026-04-10T16:40:39.998Z</time></trkpt><trkpt lat="45.048956872072544" lon="0.8679462524305639"><ele>258.0</ele><time>2026-04-10T16:40:40.998Z</time></trkpt><trkpt lat="45.048913225880234" lon="0.8681144902164477"><ele>258.0</ele><time>2026-04-10T16:40:41.998Z</time></trkpt><trkpt lat="45.048870982339146" lon="0.8682606376302385"><ele>258.0</ele><time>2026-04-10T16:40:42.998Z</time></trkpt><trkpt lat="45.04884102475736" lon="0.8683906570721264"><ele>258.0</ele><time>2026-04-10T16:40:43.998Z</time></trkpt><trkpt lat="45.048812988291616" lon="0.8685222083180024"><ele>258.0</ele><time>2026-04-10T16:40:44.998Z</time></trkpt><trkpt lat="45.048781473539286" lon="0.8686354348459095"><ele>258.0</ele><time>2026-04-10T16:40:45.998Z</time></trkpt><trkpt lat="45.04875679584944" lon="0.8687317093662419"><ele>258.2</ele><time>2026-04-10T16:40:46.998Z</time></trkpt><trkpt lat="45.04869037546127" lon="0.8688577035921174"><ele>258.4</ele><time>2026-04-10T16:40:48.998Z</time></trkpt><trkpt lat="45.04859342689363" lon="0.8688584031692734"><ele>258.59999999999997</ele><time>2026-04-10T16:40:50Z</time></trkpt><trkpt lat="45.04851258679949" lon="0.8688501679079493"><ele>258.8</ele><time>2026-04-10T16:40:51Z</time></trkpt><trkpt lat="45.048422999526466" lon="0.8688524827413222"><ele>259.0</ele><time>2026-04-10T16:40:52Z</time></trkpt><trkpt lat="45.04832227701905" lon="0.8688362875004928"><ele>259.2</ele><time>2026-04-10T16:40:53Z</time></trkpt><trkpt lat="45.048218151996295" lon="0.8688502064377313"><ele>259.4</ele><time>2026-04-10T16:40:54Z</time></trkpt><trkpt lat="45.04813074361489" lon="0.8688581194909182"><ele>259.6</ele><time>2026-04-10T16:40:55Z</time></trkpt><trkpt lat="45.04805539372255" lon="0.8688666503692275"><ele>259.8</ele><time>2026-04-10T16:40:56Z</time></trkpt><trkpt lat="45.047985276550875" lon="0.8688738407547819"><ele>260.0</ele><time>2026-04-10T16:40:57Z</time></trkpt><trkpt lat="45.04787524600223" lon="0.8689001147228805"><ele>260.0</ele><time>2026-04-10T16:40:59Z</time></trkpt><trkpt lat="45.04780009871664" lon="0.8688742483418235"><ele>260.0</ele><time>2026-04-10T16:41:01Z</time></trkpt><trkpt lat="45.04787379670235" lon="0.8687099048824716"><ele>260.0</ele><time>2026-04-10T16:41:04Z</time></trkpt><trkpt lat="45.047911363266984" lon="0.86863283861815"><ele>260.0</ele><time>2026-04-10T16:41:06Z</time></trkpt><trkpt lat="45.04784987865898" lon="0.8686002281379297"><ele>260.0</ele><time>2026-04-10T16:41:09Z</time></trkpt></trkseg></trk></gpx>